sensor_id;sensor_type;location;lat;lon;timestamp;P1;durP1;ratioP1;P2;durP2;ratioP2
4529;SDS011;2277;51.626;7.516;2022-11-20T00:01:44;11.80;;;10.63;;
4529;SDS011;2277;51.626;7.516;2022-11-20T00:04:10;12.07;;;10.80;;
4529;SDS011;2277;51.626;7.516;2022-11-20T00:06:36;13.60;;;9.87;;
4529;SDS011;2277;51.626;7.516;2022-11-20T00:09:02;11.47;;;10.30;;
4529;SDS011;2277;51.626;7.516;2022-11-20T00:11:30;11.03;;;9.27;;
4529;SDS011;2277;51.626;7.516;2022-11-20T00:13:57;14.10;;;10.43;;
4529;SDS011;2277;51.626;7.516;2022-11-20T00:16:25;11.35;;;9.00;;
4529;SDS011;2277;51.626;7.516;2022-11-20T00:18:53;10.13;;;9.05;;
4529;SDS011;2277;51.626;7.516;2022-11-20T00:21:23;12.10;;;10.20;;
4529;SDS011;2277;51.626;7.516;2022-11-20T00:23:52;13.20;;;9.65;;
4529;SDS011;2277;51.626;7.516;2022-11-20T00:26:20;21.50;;;11.48;;
4529;SDS011;2277;51.626;7.516;2022-11-20T00:28:51;14.33;;;11.37;;
4529;SDS011;2277;51.626;7.516;2022-11-20T00:31:18;9.45;;;8.57;;
4529;SDS011;2277;51.626;7.516;2022-11-20T00:33:44;8.43;;;6.97;;
4529;SDS011;2277;51.626;7.516;2022-11-20T00:36:11;10.57;;;9.45;;
4529;SDS011;2277;51.626;7.516;2022-11-20T00:38:42;12.90;;;10.80;;
4529;SDS011;2277;51.626;7.516;2022-11-20T00:41:09;11.07;;;9.48;;
4529;SDS011;2277;51.626;7.516;2022-11-20T00:43:36;10.82;;;7.70;;
4529;SDS011;2277;51.626;7.516;2022-11-20T00:46:03;9.80;;;8.60;;
4529;SDS011;2277;51.626;7.516;2022-11-20T00:48:31;9.87;;;8.87;;
4529;SDS011;2277;51.626;7.516;2022-11-20T00:50:57;13.10;;;9.43;;
4529;SDS011;2277;51.626;7.516;2022-11-20T00:53:22;10.43;;;9.23;;
4529;SDS011;2277;51.626;7.516;2022-11-20T00:58:24;9.55;;;8.27;;
4529;SDS011;2277;51.626;7.516;2022-11-20T01:00:53;11.15;;;8.30;;
4529;SDS011;2277;51.626;7.516;2022-11-20T01:03:46;13.07;;;9.70;;
4529;SDS011;2277;51.626;7.516;2022-11-20T01:06:17;12.23;;;11.13;;
4529;SDS011;2277;51.626;7.516;2022-11-20T01:08:55;13.82;;;7.75;;
4529;SDS011;2277;51.626;7.516;2022-11-20T01:11:23;13.10;;;6.97;;
4529;SDS011;2277;51.626;7.516;2022-11-20T01:14:00;16.13;;;9.07;;
4529;SDS011;2277;51.626;7.516;2022-11-20T01:16:32;12.23;;;10.10;;
4529;SDS011;2277;51.626;7.516;2022-11-20T01:19:00;9.35;;;7.68;;
4529;SDS011;2277;51.626;7.516;2022-11-20T01:21:28;10.43;;;8.97;;
4529;SDS011;2277;51.626;7.516;2022-11-20T01:23:55;9.52;;;7.88;;
4529;SDS011;2277;51.626;7.516;2022-11-20T01:26:24;6.65;;;6.05;;
4529;SDS011;2277;51.626;7.516;2022-11-20T01:28:51;8.57;;;7.43;;
4529;SDS011;2277;51.626;7.516;2022-11-20T01:31:22;13.10;;;8.47;;
4529;SDS011;2277;51.626;7.516;2022-11-20T01:33:49;8.43;;;7.63;;
4529;SDS011;2277;51.626;7.516;2022-11-20T01:36:18;11.40;;;6.37;;
4529;SDS011;2277;51.626;7.516;2022-11-20T01:38:45;7.30;;;6.60;;
4529;SDS011;2277;51.626;7.516;2022-11-20T01:41:11;15.47;;;7.13;;
4529;SDS011;2277;51.626;7.516;2022-11-20T01:43:57;14.40;;;9.48;;
4529;SDS011;2277;51.626;7.516;2022-11-20T01:46:23;11.20;;;7.30;;
4529;SDS011;2277;51.626;7.516;2022-11-20T01:49:00;8.50;;;7.40;;
4529;SDS011;2277;51.626;7.516;2022-11-20T01:51:39;7.50;;;6.53;;
4529;SDS011;2277;51.626;7.516;2022-11-20T01:54:13;10.60;;;6.70;;
4529;SDS011;2277;51.626;7.516;2022-11-20T01:56:53;6.93;;;5.70;;
4529;SDS011;2277;51.626;7.516;2022-11-20T01:59:21;16.20;;;9.95;;
4529;SDS011;2277;51.626;7.516;2022-11-20T02:01:48;7.70;;;7.00;;
4529;SDS011;2277;51.626;7.516;2022-11-20T02:04:13;10.10;;;8.97;;
4529;SDS011;2277;51.626;7.516;2022-11-20T02:06:48;10.73;;;9.23;;
4529;SDS011;2277;51.626;7.516;2022-11-20T02:09:22;10.43;;;8.27;;
4529;SDS011;2277;51.626;7.516;2022-11-20T02:11:47;8.10;;;7.50;;
4529;SDS011;2277;51.626;7.516;2022-11-20T02:14:13;9.70;;;8.27;;
4529;SDS011;2277;51.626;7.516;2022-11-20T02:16:40;12.07;;;8.80;;
4529;SDS011;2277;51.626;7.516;2022-11-20T02:19:13;16.73;;;9.70;;
4529;SDS011;2277;51.626;7.516;2022-11-20T02:21:48;11.50;;;9.93;;
4529;SDS011;2277;51.626;7.516;2022-11-20T02:24:26;10.10;;;6.33;;
4529;SDS011;2277;51.626;7.516;2022-11-20T02:26:59;9.47;;;7.73;;
4529;SDS011;2277;51.626;7.516;2022-11-20T02:29:26;12.68;;;10.80;;
4529;SDS011;2277;51.626;7.516;2022-11-20T02:32:17;7.73;;;7.03;;
4529;SDS011;2277;51.626;7.516;2022-11-20T02:34:47;11.70;;;9.17;;
4529;SDS011;2277;51.626;7.516;2022-11-20T02:37:13;8.50;;;7.13;;
4529;SDS011;2277;51.626;7.516;2022-11-20T02:39:39;8.30;;;6.27;;
4529;SDS011;2277;51.626;7.516;2022-11-20T02:42:05;9.17;;;8.27;;
4529;SDS011;2277;51.626;7.516;2022-11-20T02:44:31;10.03;;;8.23;;
4529;SDS011;2277;51.626;7.516;2022-11-20T02:46:57;11.83;;;9.20;;
4529;SDS011;2277;51.626;7.516;2022-11-20T02:49:23;13.63;;;8.07;;
4529;SDS011;2277;51.626;7.516;2022-11-20T02:51:49;10.43;;;8.33;;
4529;SDS011;2277;51.626;7.516;2022-11-20T02:54:15;12.07;;;7.72;;
4529;SDS011;2277;51.626;7.516;2022-11-20T02:56:41;15.43;;;9.10;;
4529;SDS011;2277;51.626;7.516;2022-11-20T02:59:07;9.33;;;6.60;;
4529;SDS011;2277;51.626;7.516;2022-11-20T03:01:32;12.23;;;8.40;;
4529;SDS011;2277;51.626;7.516;2022-11-20T03:03:58;11.73;;;10.50;;
4529;SDS011;2277;51.626;7.516;2022-11-20T03:06:24;11.77;;;9.27;;
4529;SDS011;2277;51.626;7.516;2022-11-20T03:08:49;9.80;;;6.97;;
4529;SDS011;2277;51.626;7.516;2022-11-20T03:11:15;9.47;;;6.90;;
4529;SDS011;2277;51.626;7.516;2022-11-20T03:13:41;9.63;;;8.73;;
4529;SDS011;2277;51.626;7.516;2022-11-20T03:16:11;10.13;;;8.70;;
4529;SDS011;2277;51.626;7.516;2022-11-20T03:18:39;29.80;;;8.37;;
4529;SDS011;2277;51.626;7.516;2022-11-20T03:21:06;12.03;;;7.50;;
4529;SDS011;2277;51.626;7.516;2022-11-20T03:23:32;11.33;;;10.40;;
4529;SDS011;2277;51.626;7.516;2022-11-20T03:26:08;11.83;;;8.67;;
4529;SDS011;2277;51.626;7.516;2022-11-20T03:28:48;11.30;;;8.93;;
4529;SDS011;2277;51.626;7.516;2022-11-20T03:31:15;17.38;;;7.47;;
4529;SDS011;2277;51.626;7.516;2022-11-20T03:33:42;9.95;;;8.45;;
4529;SDS011;2277;51.626;7.516;2022-11-20T03:36:09;10.15;;;9.05;;
4529;SDS011;2277;51.626;7.516;2022-11-20T03:38:37;11.53;;;8.70;;
4529;SDS011;2277;51.626;7.516;2022-11-20T03:41:07;9.90;;;9.00;;
4529;SDS011;2277;51.626;7.516;2022-11-20T03:43:34;12.43;;;10.17;;
4529;SDS011;2277;51.626;7.516;2022-11-20T03:46:00;10.60;;;8.43;;
4529;SDS011;2277;51.626;7.516;2022-11-20T03:48:26;10.73;;;9.27;;
4529;SDS011;2277;51.626;7.516;2022-11-20T03:50:52;10.30;;;8.10;;
4529;SDS011;2277;51.626;7.516;2022-11-20T03:53:19;9.63;;;8.53;;
4529;SDS011;2277;51.626;7.516;2022-11-20T03:55:45;12.13;;;9.80;;
4529;SDS011;2277;51.626;7.516;2022-11-20T03:58:15;9.63;;;8.37;;
4529;SDS011;2277;51.626;7.516;2022-11-20T04:00:41;10.27;;;8.70;;
4529;SDS011;2277;51.626;7.516;2022-11-20T04:03:06;6.10;;;5.60;;
4529;SDS011;2277;51.626;7.516;2022-11-20T04:05:32;12.87;;;10.77;;
4529;SDS011;2277;51.626;7.516;2022-11-20T04:07:59;13.13;;;7.30;;
4529;SDS011;2277;51.626;7.516;2022-11-20T04:10:24;9.47;;;8.47;;
4529;SDS011;2277;51.626;7.516;2022-11-20T04:12:50;14.70;;;7.70;;
4529;SDS011;2277;51.626;7.516;2022-11-20T04:15:16;12.93;;;10.67;;
4529;SDS011;2277;51.626;7.516;2022-11-20T04:17:41;11.67;;;10.53;;
4529;SDS011;2277;51.626;7.516;2022-11-20T04:20:07;9.70;;;8.60;;
4529;SDS011;2277;51.626;7.516;2022-11-20T04:22:33;12.77;;;8.70;;
4529;SDS011;2277;51.626;7.516;2022-11-20T04:24:58;20.33;;;9.73;;
4529;SDS011;2277;51.626;7.516;2022-11-20T04:27:24;11.37;;;10.33;;
4529;SDS011;2277;51.626;7.516;2022-11-20T04:29:49;10.10;;;8.60;;
4529;SDS011;2277;51.626;7.516;2022-11-20T04:32:15;13.00;;;9.13;;
4529;SDS011;2277;51.626;7.516;2022-11-20T04:34:41;9.83;;;8.67;;
4529;SDS011;2277;51.626;7.516;2022-11-20T04:37:06;9.47;;;6.50;;
4529;SDS011;2277;51.626;7.516;2022-11-20T04:39:32;11.60;;;7.70;;
4529;SDS011;2277;51.626;7.516;2022-11-20T04:41:57;11.50;;;10.40;;
4529;SDS011;2277;51.626;7.516;2022-11-20T04:44:41;10.80;;;7.77;;
4529;SDS011;2277;51.626;7.516;2022-11-20T04:47:07;10.00;;;6.50;;
4529;SDS011;2277;51.626;7.516;2022-11-20T04:49:32;9.97;;;7.87;;
4529;SDS011;2277;51.626;7.516;2022-11-20T04:51:58;13.83;;;10.20;;
4529;SDS011;2277;51.626;7.516;2022-11-20T04:54:24;11.70;;;8.00;;
4529;SDS011;2277;51.626;7.516;2022-11-20T04:56:50;12.10;;;9.30;;
4529;SDS011;2277;51.626;7.516;2022-11-20T04:59:16;15.07;;;7.23;;
4529;SDS011;2277;51.626;7.516;2022-11-20T05:01:41;8.90;;;7.57;;
4529;SDS011;2277;51.626;7.516;2022-11-20T05:04:07;13.13;;;8.67;;
4529;SDS011;2277;51.626;7.516;2022-11-20T05:06:33;12.90;;;7.93;;
4529;SDS011;2277;51.626;7.516;2022-11-20T05:08:58;11.60;;;8.97;;
4529;SDS011;2277;51.626;7.516;2022-11-20T05:11:24;12.27;;;11.07;;
4529;SDS011;2277;51.626;7.516;2022-11-20T05:13:50;11.20;;;7.20;;
4529;SDS011;2277;51.626;7.516;2022-11-20T05:16:17;16.80;;;9.30;;
4529;SDS011;2277;51.626;7.516;2022-11-20T05:18:47;9.63;;;8.50;;
4529;SDS011;2277;51.626;7.516;2022-11-20T05:21:13;11.13;;;8.20;;
4529;SDS011;2277;51.626;7.516;2022-11-20T05:23:40;9.60;;;8.43;;
4529;SDS011;2277;51.626;7.516;2022-11-20T05:26:07;12.40;;;7.67;;
4529;SDS011;2277;51.626;7.516;2022-11-20T05:28:36;18.07;;;8.63;;
4529;SDS011;2277;51.626;7.516;2022-11-20T05:31:09;11.10;;;9.87;;
4529;SDS011;2277;51.626;7.516;2022-11-20T05:33:36;8.83;;;7.67;;
4529;SDS011;2277;51.626;7.516;2022-11-20T05:36:04;9.00;;;7.40;;
4529;SDS011;2277;51.626;7.516;2022-11-20T05:38:31;8.33;;;7.50;;
4529;SDS011;2277;51.626;7.516;2022-11-20T05:41:06;12.20;;;8.50;;
4529;SDS011;2277;51.626;7.516;2022-11-20T05:43:36;7.53;;;6.07;;
4529;SDS011;2277;51.626;7.516;2022-11-20T05:46:03;11.03;;;7.60;;
4529;SDS011;2277;51.626;7.516;2022-11-20T05:48:31;15.10;;;8.93;;
4529;SDS011;2277;51.626;7.516;2022-11-20T05:50:58;11.37;;;8.47;;
4529;SDS011;2277;51.626;7.516;2022-11-20T05:53:24;10.10;;;8.00;;
4529;SDS011;2277;51.626;7.516;2022-11-20T05:56:00;13.33;;;7.00;;
4529;SDS011;2277;51.626;7.516;2022-11-20T05:58:27;12.87;;;8.70;;
4529;SDS011;2277;51.626;7.516;2022-11-20T06:00:53;8.80;;;8.00;;
4529;SDS011;2277;51.626;7.516;2022-11-20T06:03:19;13.63;;;8.97;;
4529;SDS011;2277;51.626;7.516;2022-11-20T06:05:45;7.33;;;6.07;;
4529;SDS011;2277;51.626;7.516;2022-11-20T06:08:11;7.33;;;6.63;;
4529;SDS011;2277;51.626;7.516;2022-11-20T06:10:37;8.87;;;8.07;;
4529;SDS011;2277;51.626;7.516;2022-11-20T06:13:02;7.57;;;6.77;;
4529;SDS011;2277;51.626;7.516;2022-11-20T06:15:28;10.10;;;7.93;;
4529;SDS011;2277;51.626;7.516;2022-11-20T06:17:54;9.80;;;6.80;;
4529;SDS011;2277;51.626;7.516;2022-11-20T06:20:23;10.23;;;6.63;;
4529;SDS011;2277;51.626;7.516;2022-11-20T06:22:48;9.63;;;8.80;;
4529;SDS011;2277;51.626;7.516;2022-11-20T06:25:14;11.57;;;9.87;;
4529;SDS011;2277;51.626;7.516;2022-11-20T06:27:40;12.70;;;8.50;;
4529;SDS011;2277;51.626;7.516;2022-11-20T06:30:05;10.03;;;7.77;;
4529;SDS011;2277;51.626;7.516;2022-11-20T06:32:32;10.20;;;9.37;;
4529;SDS011;2277;51.626;7.516;2022-11-20T06:34:58;11.20;;;9.80;;
4529;SDS011;2277;51.626;7.516;2022-11-20T06:37:23;13.80;;;8.77;;
4529;SDS011;2277;51.626;7.516;2022-11-20T06:39:49;8.83;;;5.80;;
4529;SDS011;2277;51.626;7.516;2022-11-20T06:42:14;9.63;;;6.03;;
4529;SDS011;2277;51.626;7.516;2022-11-20T06:44:40;9.90;;;8.90;;
4529;SDS011;2277;51.626;7.516;2022-11-20T06:47:06;27.23;;;8.30;;
4529;SDS011;2277;51.626;7.516;2022-11-20T06:49:31;9.30;;;7.67;;
4529;SDS011;2277;51.626;7.516;2022-11-20T06:51:59;8.73;;;6.28;;
4529;SDS011;2277;51.626;7.516;2022-11-20T06:54:24;7.73;;;7.03;;
4529;SDS011;2277;51.626;7.516;2022-11-20T06:56:50;7.73;;;6.90;;
4529;SDS011;2277;51.626;7.516;2022-11-20T06:59:15;9.57;;;7.67;;
4529;SDS011;2277;51.626;7.516;2022-11-20T07:01:41;13.60;;;8.27;;
4529;SDS011;2277;51.626;7.516;2022-11-20T07:04:07;8.00;;;7.27;;
4529;SDS011;2277;51.626;7.516;2022-11-20T07:06:32;6.63;;;5.93;;
4529;SDS011;2277;51.626;7.516;2022-11-20T07:08:58;10.43;;;7.67;;
4529;SDS011;2277;51.626;7.516;2022-11-20T07:11:23;12.60;;;8.87;;
4529;SDS011;2277;51.626;7.516;2022-11-20T07:13:49;8.90;;;8.10;;
4529;SDS011;2277;51.626;7.516;2022-11-20T07:16:15;9.47;;;8.67;;
4529;SDS011;2277;51.626;7.516;2022-11-20T07:18:40;10.07;;;7.50;;
4529;SDS011;2277;51.626;7.516;2022-11-20T07:21:07;11.63;;;8.50;;
4529;SDS011;2277;51.626;7.516;2022-11-20T07:23:35;8.37;;;7.67;;
4529;SDS011;2277;51.626;7.516;2022-11-20T07:26:04;11.37;;;9.43;;
4529;SDS011;2277;51.626;7.516;2022-11-20T07:28:31;8.23;;;6.27;;
4529;SDS011;2277;51.626;7.516;2022-11-20T07:30:58;17.95;;;10.07;;
4529;SDS011;2277;51.626;7.516;2022-11-20T07:33:23;10.37;;;9.43;;
4529;SDS011;2277;51.626;7.516;2022-11-20T07:35:49;15.20;;;8.87;;
4529;SDS011;2277;51.626;7.516;2022-11-20T07:38:15;9.57;;;8.70;;
4529;SDS011;2277;51.626;7.516;2022-11-20T07:40:40;15.70;;;9.87;;
4529;SDS011;2277;51.626;7.516;2022-11-20T07:43:06;11.63;;;10.53;;
4529;SDS011;2277;51.626;7.516;2022-11-20T07:45:32;16.73;;;10.33;;
4529;SDS011;2277;51.626;7.516;2022-11-20T07:47:57;15.23;;;8.87;;
4529;SDS011;2277;51.626;7.516;2022-11-20T07:50:23;10.90;;;9.73;;
4529;SDS011;2277;51.626;7.516;2022-11-20T07:52:48;11.93;;;10.13;;
4529;SDS011;2277;51.626;7.516;2022-11-20T07:55:14;16.80;;;11.37;;
4529;SDS011;2277;51.626;7.516;2022-11-20T07:57:40;10.43;;;9.37;;
4529;SDS011;2277;51.626;7.516;2022-11-20T08:00:07;10.00;;;9.03;;
4529;SDS011;2277;51.626;7.516;2022-11-20T08:02:36;10.13;;;9.17;;
4529;SDS011;2277;51.626;7.516;2022-11-20T08:05:06;13.30;;;11.50;;
4529;SDS011;2277;51.626;7.516;2022-11-20T08:07:39;12.27;;;11.03;;
4529;SDS011;2277;51.626;7.516;2022-11-20T08:10:06;10.00;;;9.00;;
4529;SDS011;2277;51.626;7.516;2022-11-20T08:12:33;17.13;;;9.97;;
4529;SDS011;2277;51.626;7.516;2022-11-20T08:15:17;16.87;;;11.67;;
4529;SDS011;2277;51.626;7.516;2022-11-20T08:17:42;13.93;;;9.93;;
4529;SDS011;2277;51.626;7.516;2022-11-20T08:20:08;11.23;;;10.03;;
4529;SDS011;2277;51.626;7.516;2022-11-20T08:22:34;12.63;;;11.40;;
4529;SDS011;2277;51.626;7.516;2022-11-20T08:24:59;11.40;;;9.33;;
4529;SDS011;2277;51.626;7.516;2022-11-20T08:27:25;17.50;;;11.17;;
4529;SDS011;2277;51.626;7.516;2022-11-20T08:29:51;18.60;;;14.13;;
4529;SDS011;2277;51.626;7.516;2022-11-20T08:32:17;15.03;;;13.73;;
4529;SDS011;2277;51.626;7.516;2022-11-20T08:34:42;17.73;;;12.53;;
4529;SDS011;2277;51.626;7.516;2022-11-20T08:37:08;15.47;;;13.83;;
4529;SDS011;2277;51.626;7.516;2022-11-20T08:39:33;23.43;;;14.00;;
4529;SDS011;2277;51.626;7.516;2022-11-20T08:41:59;15.60;;;13.87;;
4529;SDS011;2277;51.626;7.516;2022-11-20T08:44:24;17.27;;;13.83;;
4529;SDS011;2277;51.626;7.516;2022-11-20T08:46:50;14.93;;;12.03;;
4529;SDS011;2277;51.626;7.516;2022-11-20T08:49:15;15.47;;;12.33;;
4529;SDS011;2277;51.626;7.516;2022-11-20T08:51:42;13.00;;;10.90;;
4529;SDS011;2277;51.626;7.516;2022-11-20T08:54:08;17.00;;;12.20;;
4529;SDS011;2277;51.626;7.516;2022-11-20T08:56:34;16.17;;;12.63;;
4529;SDS011;2277;51.626;7.516;2022-11-20T08:59:00;10.67;;;9.60;;
4529;SDS011;2277;51.626;7.516;2022-11-20T09:01:26;12.47;;;11.33;;
4529;SDS011;2277;51.626;7.516;2022-11-20T09:03:54;11.53;;;10.57;;
4529;SDS011;2277;51.626;7.516;2022-11-20T09:06:21;15.40;;;13.30;;
4529;SDS011;2277;51.626;7.516;2022-11-20T09:08:46;13.43;;;11.30;;
4529;SDS011;2277;51.626;7.516;2022-11-20T09:11:13;17.90;;;13.00;;
4529;SDS011;2277;51.626;7.516;2022-11-20T09:13:38;14.87;;;12.30;;
4529;SDS011;2277;51.626;7.516;2022-11-20T09:16:05;11.40;;;10.27;;
4529;SDS011;2277;51.626;7.516;2022-11-20T09:18:32;11.23;;;10.13;;
4529;SDS011;2277;51.626;7.516;2022-11-20T09:21:01;15.30;;;13.43;;
4529;SDS011;2277;51.626;7.516;2022-11-20T09:23:33;12.87;;;11.40;;
4529;SDS011;2277;51.626;7.516;2022-11-20T09:26:08;18.80;;;11.17;;
4529;SDS011;2277;51.626;7.516;2022-11-20T09:28:35;13.93;;;11.17;;
4529;SDS011;2277;51.626;7.516;2022-11-20T09:31:04;14.67;;;11.30;;
4529;SDS011;2277;51.626;7.516;2022-11-20T09:33:33;25.87;;;15.33;;
4529;SDS011;2277;51.626;7.516;2022-11-20T09:36:00;19.33;;;17.50;;
4529;SDS011;2277;51.626;7.516;2022-11-20T09:38:25;20.90;;;14.13;;
4529;SDS011;2277;51.626;7.516;2022-11-20T09:40:54;17.20;;;14.17;;
4529;SDS011;2277;51.626;7.516;2022-11-20T09:46:18;9.00;;;8.13;;
4529;SDS011;2277;51.626;7.516;2022-11-20T09:49:03;13.10;;;11.60;;
4529;SDS011;2277;51.626;7.516;2022-11-20T09:54:38;12.60;;;11.30;;
4529;SDS011;2277;51.626;7.516;2022-11-20T09:57:08;14.13;;;11.87;;
4529;SDS011;2277;51.626;7.516;2022-11-20T09:59:40;12.07;;;10.87;;
4529;SDS011;2277;51.626;7.516;2022-11-20T10:02:25;16.97;;;9.57;;
4529;SDS011;2277;51.626;7.516;2022-11-20T10:05:04;12.10;;;10.13;;
4529;SDS011;2277;51.626;7.516;2022-11-20T10:10:34;10.77;;;8.37;;
4529;SDS011;2277;51.626;7.516;2022-11-20T10:13:17;10.47;;;9.33;;
4529;SDS011;2277;51.626;7.516;2022-11-20T10:16:04;15.67;;;10.50;;
4529;SDS011;2277;51.626;7.516;2022-11-20T10:29:36;10.97;;;9.93;;
4529;SDS011;2277;51.626;7.516;2022-11-20T10:32:11;8.47;;;7.73;;
4529;SDS011;2277;51.626;7.516;2022-11-20T10:37:22;8.77;;;7.87;;
4529;SDS011;2277;51.626;7.516;2022-11-20T10:42:37;7.17;;;6.00;;
4529;SDS011;2277;51.626;7.516;2022-11-20T10:47:49;8.40;;;7.60;;
4529;SDS011;2277;51.626;7.516;2022-11-20T10:50:35;9.30;;;8.50;;
4529;SDS011;2277;51.626;7.516;2022-11-20T10:56:07;10.20;;;8.43;;
4529;SDS011;2277;51.626;7.516;2022-11-20T11:01:19;7.90;;;6.77;;
4529;SDS011;2277;51.626;7.516;2022-11-20T11:03:49;7.77;;;7.07;;
4529;SDS011;2277;51.626;7.516;2022-11-20T11:08:59;10.43;;;9.43;;
4529;SDS011;2277;51.626;7.516;2022-11-20T11:11:30;9.63;;;7.50;;
4529;SDS011;2277;51.626;7.516;2022-11-20T11:14:12;10.10;;;7.13;;
4529;SDS011;2277;51.626;7.516;2022-11-20T11:16:49;8.37;;;6.50;;
4529;SDS011;2277;51.626;7.516;2022-11-20T11:19:16;7.47;;;6.53;;
4529;SDS011;2277;51.626;7.516;2022-11-20T11:21:49;7.43;;;6.40;;
4529;SDS011;2277;51.626;7.516;2022-11-20T11:24:22;9.37;;;6.27;;
4529;SDS011;2277;51.626;7.516;2022-11-20T11:26:54;11.43;;;9.20;;
4529;SDS011;2277;51.626;7.516;2022-11-20T11:29:20;7.50;;;6.80;;
4529;SDS011;2277;51.626;7.516;2022-11-20T11:31:46;7.53;;;6.83;;
4529;SDS011;2277;51.626;7.516;2022-11-20T11:34:15;9.17;;;8.23;;
4529;SDS011;2277;51.626;7.516;2022-11-20T11:36:42;10.30;;;8.80;;
4529;SDS011;2277;51.626;7.516;2022-11-20T11:39:17;11.60;;;8.70;;
4529;SDS011;2277;51.626;7.516;2022-11-20T11:41:44;15.10;;;9.80;;
4529;SDS011;2277;51.626;7.516;2022-11-20T11:44:20;15.43;;;7.83;;
4529;SDS011;2277;51.626;7.516;2022-11-20T11:47:09;12.10;;;8.43;;
4529;SDS011;2277;51.626;7.516;2022-11-20T11:49:46;7.70;;;6.30;;
4529;SDS011;2277;51.626;7.516;2022-11-20T11:52:12;9.37;;;6.07;;
4529;SDS011;2277;51.626;7.516;2022-11-20T11:57:26;4.60;;;4.23;;
4529;SDS011;2277;51.626;7.516;2022-11-20T12:02:38;7.63;;;6.87;;
4529;SDS011;2277;51.626;7.516;2022-11-20T12:05:17;5.50;;;4.67;;
4529;SDS011;2277;51.626;7.516;2022-11-20T12:10:33;5.33;;;4.40;;
4529;SDS011;2277;51.626;7.516;2022-11-20T12:13:15;4.73;;;3.57;;
4529;SDS011;2277;51.626;7.516;2022-11-20T12:15:49;8.13;;;7.33;;
4529;SDS011;2277;51.626;7.516;2022-11-20T12:18:16;6.27;;;5.67;;
4529;SDS011;2277;51.626;7.516;2022-11-20T12:23:53;14.80;;;7.70;;
4529;SDS011;2277;51.626;7.516;2022-11-20T12:40:14;6.83;;;5.07;;
4529;SDS011;2277;51.626;7.516;2022-11-20T12:43:18;10.97;;;6.67;;
4529;SDS011;2277;51.626;7.516;2022-11-20T12:49:12;5.57;;;5.17;;
4529;SDS011;2277;51.626;7.516;2022-11-20T12:51:58;7.83;;;5.30;;
4529;SDS011;2277;51.626;7.516;2022-11-20T12:54:57;10.57;;;7.97;;
4529;SDS011;2277;51.626;7.516;2022-11-20T12:57:49;4.70;;;4.23;;
4529;SDS011;2277;51.626;7.516;2022-11-20T13:00:24;24.40;;;9.00;;
4529;SDS011;2277;51.626;7.516;2022-11-20T13:03:11;8.40;;;5.87;;
4529;SDS011;2277;51.626;7.516;2022-11-20T13:06:15;8.23;;;6.73;;
4529;SDS011;2277;51.626;7.516;2022-11-20T13:08:48;11.07;;;7.40;;
4529;SDS011;2277;51.626;7.516;2022-11-20T13:11:27;6.23;;;5.50;;
4529;SDS011;2277;51.626;7.516;2022-11-20T13:19:49;15.63;;;7.23;;
4529;SDS011;2277;51.626;7.516;2022-11-20T13:22:24;8.00;;;7.30;;
4529;SDS011;2277;51.626;7.516;2022-11-20T13:24:51;8.60;;;5.67;;
4529;SDS011;2277;51.626;7.516;2022-11-20T13:27:18;9.30;;;6.03;;
4529;SDS011;2277;51.626;7.516;2022-11-20T13:29:47;5.30;;;4.90;;
4529;SDS011;2277;51.626;7.516;2022-11-20T13:32:25;10.90;;;5.80;;
4529;SDS011;2277;51.626;7.516;2022-11-20T13:34:58;5.97;;;5.47;;
4529;SDS011;2277;51.626;7.516;2022-11-20T13:40:04;6.87;;;6.17;;
4529;SDS011;2277;51.626;7.516;2022-11-20T13:42:45;8.80;;;7.80;;
4529;SDS011;2277;51.626;7.516;2022-11-20T13:45:25;9.63;;;7.83;;
4529;SDS011;2277;51.626;7.516;2022-11-20T13:47:52;7.73;;;7.03;;
4529;SDS011;2277;51.626;7.516;2022-11-20T13:50:19;7.50;;;7.00;;
4529;SDS011;2277;51.626;7.516;2022-11-20T13:55:57;7.87;;;6.70;;
4529;SDS011;2277;51.626;7.516;2022-11-20T14:01:36;7.37;;;6.67;;
4529;SDS011;2277;51.626;7.516;2022-11-20T14:04:06;6.40;;;5.50;;
4529;SDS011;2277;51.626;7.516;2022-11-20T14:06:43;13.10;;;7.00;;
4529;SDS011;2277;51.626;7.516;2022-11-20T14:09:12;5.73;;;5.13;;
4529;SDS011;2277;51.626;7.516;2022-11-20T14:11:49;8.13;;;7.07;;
4529;SDS011;2277;51.626;7.516;2022-11-20T14:14:19;17.60;;;9.07;;
4529;SDS011;2277;51.626;7.516;2022-11-20T14:16:47;7.43;;;6.60;;
4529;SDS011;2277;51.626;7.516;2022-11-20T14:22:07;19.07;;;8.77;;
4529;SDS011;2277;51.626;7.516;2022-11-20T14:24:39;10.00;;;8.80;;
4529;SDS011;2277;51.626;7.516;2022-11-20T14:27:09;6.30;;;5.20;;
4529;SDS011;2277;51.626;7.516;2022-11-20T14:29:40;7.80;;;7.10;;
4529;SDS011;2277;51.626;7.516;2022-11-20T14:32:08;11.23;;;9.50;;
4529;SDS011;2277;51.626;7.516;2022-11-20T14:34:37;9.63;;;6.83;;
4529;SDS011;2277;51.626;7.516;2022-11-20T14:37:12;15.30;;;11.70;;
4529;SDS011;2277;51.626;7.516;2022-11-20T14:39:42;11.87;;;8.07;;
4529;SDS011;2277;51.626;7.516;2022-11-20T14:42:15;14.97;;;9.97;;
4529;SDS011;2277;51.626;7.516;2022-11-20T14:44:43;11.47;;;8.60;;
4529;SDS011;2277;51.626;7.516;2022-11-20T14:47:10;9.57;;;8.50;;
4529;SDS011;2277;51.626;7.516;2022-11-20T14:49:37;7.27;;;5.90;;
4529;SDS011;2277;51.626;7.516;2022-11-20T14:52:18;10.30;;;7.40;;
4529;SDS011;2277;51.626;7.516;2022-11-20T14:54:49;14.27;;;9.13;;
4529;SDS011;2277;51.626;7.516;2022-11-20T14:57:23;14.90;;;13.23;;
4529;SDS011;2277;51.626;7.516;2022-11-20T15:00:03;13.70;;;9.53;;
4529;SDS011;2277;51.626;7.516;2022-11-20T15:02:38;8.40;;;7.70;;
4529;SDS011;2277;51.626;7.516;2022-11-20T15:05:07;8.77;;;8.00;;
4529;SDS011;2277;51.626;7.516;2022-11-20T15:07:37;16.30;;;8.83;;
4529;SDS011;2277;51.626;7.516;2022-11-20T15:10:09;9.33;;;7.47;;
4529;SDS011;2277;51.626;7.516;2022-11-20T15:12:40;8.83;;;8.00;;
4529;SDS011;2277;51.626;7.516;2022-11-20T15:15:27;9.80;;;7.20;;
4529;SDS011;2277;51.626;7.516;2022-11-20T15:17:54;13.10;;;9.40;;
4529;SDS011;2277;51.626;7.516;2022-11-20T15:20:20;11.17;;;9.10;;
4529;SDS011;2277;51.626;7.516;2022-11-20T15:22:51;9.33;;;8.43;;
4529;SDS011;2277;51.626;7.516;2022-11-20T15:25:17;9.73;;;8.47;;
4529;SDS011;2277;51.626;7.516;2022-11-20T15:27:43;12.03;;;10.13;;
4529;SDS011;2277;51.626;7.516;2022-11-20T15:30:17;10.73;;;9.70;;
4529;SDS011;2277;51.626;7.516;2022-11-20T15:32:44;9.93;;;9.03;;
4529;SDS011;2277;51.626;7.516;2022-11-20T15:35:11;6.80;;;6.17;;
4529;SDS011;2277;51.626;7.516;2022-11-20T15:37:37;12.97;;;9.57;;
4529;SDS011;2277;51.626;7.516;2022-11-20T15:40:04;11.50;;;10.23;;
4529;SDS011;2277;51.626;7.516;2022-11-20T15:42:30;13.43;;;8.30;;
4529;SDS011;2277;51.626;7.516;2022-11-20T15:44:56;13.97;;;10.63;;
4529;SDS011;2277;51.626;7.516;2022-11-20T15:47:27;18.47;;;9.87;;
4529;SDS011;2277;51.626;7.516;2022-11-20T15:49:55;11.07;;;9.67;;
4529;SDS011;2277;51.626;7.516;2022-11-20T15:52:20;11.80;;;9.33;;
4529;SDS011;2277;51.626;7.516;2022-11-20T15:54:46;13.00;;;10.00;;
4529;SDS011;2277;51.626;7.516;2022-11-20T15:57:12;9.57;;;8.40;;
4529;SDS011;2277;51.626;7.516;2022-11-20T15:59:38;11.50;;;10.20;;
4529;SDS011;2277;51.626;7.516;2022-11-20T16:02:12;12.63;;;8.70;;
4529;SDS011;2277;51.626;7.516;2022-11-20T16:04:39;9.07;;;8.00;;
4529;SDS011;2277;51.626;7.516;2022-11-20T16:07:04;8.47;;;7.50;;
4529;SDS011;2277;51.626;7.516;2022-11-20T16:09:30;8.47;;;7.73;;
4529;SDS011;2277;51.626;7.516;2022-11-20T16:11:55;15.53;;;10.60;;
4529;SDS011;2277;51.626;7.516;2022-11-20T16:14:24;11.70;;;10.40;;
4529;SDS011;2277;51.626;7.516;2022-11-20T16:17:08;12.83;;;9.27;;
4529;SDS011;2277;51.626;7.516;2022-11-20T16:19:34;13.37;;;11.10;;
4529;SDS011;2277;51.626;7.516;2022-11-20T16:21:59;16.50;;;11.90;;
4529;SDS011;2277;51.626;7.516;2022-11-20T16:24:26;20.67;;;12.67;;
4529;SDS011;2277;51.626;7.516;2022-11-20T16:26:52;16.63;;;9.43;;
4529;SDS011;2277;51.626;7.516;2022-11-20T16:29:18;13.33;;;11.83;;
4529;SDS011;2277;51.626;7.516;2022-11-20T16:31:44;15.03;;;11.40;;
4529;SDS011;2277;51.626;7.516;2022-11-20T16:34:09;13.03;;;11.10;;
4529;SDS011;2277;51.626;7.516;2022-11-20T16:36:35;22.57;;;11.67;;
4529;SDS011;2277;51.626;7.516;2022-11-20T16:39:03;10.37;;;9.00;;
4529;SDS011;2277;51.626;7.516;2022-11-20T16:41:30;13.50;;;11.27;;